< < Back
Terminal Aerodrome Forecast


Current Version              Previous Versions:   1  2  3  4  5  6  7  8  9  

Terminal Aerodrome Forecast

025
FTUS44 KHUN 262320
TAFHSV
TAF
KHSV 262320Z 2700/2724 36010KT P6SM FEW022 SCT035 BKN045
      TEMPO 2700/2703 SCT016 BKN022
     FM270700 01006KT P6SM SKC
     FM271500 04008KT P6SM SKC=



Latest METAR

250
SAUS80 KWBC 271700 CCA
MTRHSV
METAR KHSV 271653Z 03011G16KT 10SM SCT200 BKN250 18/04 A2996 RMK AO2
SLP142 T01830044


USA.gov is the U.S. government's official web portal to all federal, state and local government web resources and services.